sensor_id;sensor_type;location;lat;lon;timestamp;temperature;humidity
9971;DHT22;5026;51.494;11.974;2022-12-07T00:01:19;2.10;99.90
9971;DHT22;5026;51.494;11.974;2022-12-07T00:03:48;1.70;99.90
9971;DHT22;5026;51.494;11.974;2022-12-07T00:06:16;2.60;99.90
9971;DHT22;5026;51.494;11.974;2022-12-07T00:08:45;1.90;99.90
9971;DHT22;5026;51.494;11.974;2022-12-07T00:11:13;1.90;99.90
9971;DHT22;5026;51.494;11.974;2022-12-07T00:16:10;2.00;99.90
9971;DHT22;5026;51.494;11.974;2022-12-07T00:18:38;2.00;99.90
9971;DHT22;5026;51.494;11.974;2022-12-07T00:21:06;1.90;99.90
9971;DHT22;5026;51.494;11.974;2022-12-07T00:23:33;1.90;99.90
9971;DHT22;5026;51.494;11.974;2022-12-07T00:26:06;1.80;99.90
9971;DHT22;5026;51.494;11.974;2022-12-07T00:28:33;1.70;99.90
9971;DHT22;5026;51.494;11.974;2022-12-07T00:31:02;1.70;99.90
9971;DHT22;5026;51.494;11.974;2022-12-07T00:33:29;2.30;99.90
9971;DHT22;5026;51.494;11.974;2022-12-07T00:35:56;1.50;99.90
9971;DHT22;5026;51.494;11.974;2022-12-07T00:38:24;0.20;99.90
9971;DHT22;5026;51.494;11.974;2022-12-07T00:40:56;1.50;99.90
9971;DHT22;5026;51.494;11.974;2022-12-07T00:43:25;1.40;99.90
9971;DHT22;5026;51.494;11.974;2022-12-07T00:45:52;1.40;99.90
9971;DHT22;5026;51.494;11.974;2022-12-07T00:48:19;2.40;99.90
9971;DHT22;5026;51.494;11.974;2022-12-07T00:50:46;1.30;99.90
9971;DHT22;5026;51.494;11.974;2022-12-07T00:53:13;1.30;99.90
9971;DHT22;5026;51.494;11.974;2022-12-07T00:55:40;2.80;99.90
9971;DHT22;5026;51.494;11.974;2022-12-07T00:58:08;1.30;99.90
9971;DHT22;5026;51.494;11.974;2022-12-07T01:00:38;1.30;99.90
9971;DHT22;5026;51.494;11.974;2022-12-07T01:03:07;2.90;99.90
9971;DHT22;5026;51.494;11.974;2022-12-07T01:05:34;1.40;99.90
9971;DHT22;5026;51.494;11.974;2022-12-07T01:08:02;1.40;99.90
9971;DHT22;5026;51.494;11.974;2022-12-07T01:10:29;2.40;99.90
9971;DHT22;5026;51.494;11.974;2022-12-07T01:12:57;1.30;99.90
9971;DHT22;5026;51.494;11.974;2022-12-07T01:15:24;1.30;99.90
9971;DHT22;5026;51.494;11.974;2022-12-07T01:17:53;1.30;99.90
9971;DHT22;5026;51.494;11.974;2022-12-07T01:20:20;1.70;99.90
9971;DHT22;5026;51.494;11.974;2022-12-07T01:22:47;1.20;99.90
9971;DHT22;5026;51.494;11.974;2022-12-07T01:25:14;1.70;99.90
9971;DHT22;5026;51.494;11.974;2022-12-07T01:27:41;1.20;99.90
9971;DHT22;5026;51.494;11.974;2022-12-07T01:30:11;3.10;99.90
9971;DHT22;5026;51.494;11.974;2022-12-07T01:32:38;1.10;99.90
9971;DHT22;5026;51.494;11.974;2022-12-07T01:35:07;1.10;99.90
9971;DHT22;5026;51.494;11.974;2022-12-07T01:37:35;1.10;99.90
9971;DHT22;5026;51.494;11.974;2022-12-07T01:40:03;1.10;99.90
9971;DHT22;5026;51.494;11.974;2022-12-07T01:45:53;1.00;99.90
9971;DHT22;5026;51.494;11.974;2022-12-07T01:48:29;1.00;99.90
9971;DHT22;5026;51.494;11.974;2022-12-07T01:51:03;1.00;99.90
9971;DHT22;5026;51.494;11.974;2022-12-07T01:53:33;1.00;99.90
9971;DHT22;5026;51.494;11.974;2022-12-07T01:56:01;1.00;99.90
9971;DHT22;5026;51.494;11.974;2022-12-07T01:58:28;1.00;99.90
9971;DHT22;5026;51.494;11.974;2022-12-07T02:00:55;1.30;99.90
9971;DHT22;5026;51.494;11.974;2022-12-07T02:03:25;1.00;99.90
9971;DHT22;5026;51.494;11.974;2022-12-07T02:05:54;1.00;99.90
9971;DHT22;5026;51.494;11.974;2022-12-07T02:08:24;1.00;99.90
9971;DHT22;5026;51.494;11.974;2022-12-07T02:10:51;1.00;99.90
9971;DHT22;5026;51.494;11.974;2022-12-07T02:13:20;1.00;99.90
9971;DHT22;5026;51.494;11.974;2022-12-07T02:16:12;1.00;99.90
9971;DHT22;5026;51.494;11.974;2022-12-07T02:18:50;1.00;99.90
9971;DHT22;5026;51.494;11.974;2022-12-07T02:21:25;1.00;99.90
9971;DHT22;5026;51.494;11.974;2022-12-07T02:24:18;1.00;99.90
9971;DHT22;5026;51.494;11.974;2022-12-07T02:27:09;1.10;99.90
9971;DHT22;5026;51.494;11.974;2022-12-07T02:29:42;1.10;99.90
9971;DHT22;5026;51.494;11.974;2022-12-07T02:32:15;1.30;99.90
9971;DHT22;5026;51.494;11.974;2022-12-07T02:34:48;1.30;99.90
9971;DHT22;5026;51.494;11.974;2022-12-07T02:37:30;1.40;99.90
9971;DHT22;5026;51.494;11.974;2022-12-07T02:40:03;1.40;99.90
9971;DHT22;5026;51.494;11.974;2022-12-07T02:42:35;1.60;99.90
9971;DHT22;5026;51.494;11.974;2022-12-07T02:45:06;1.40;99.90
9971;DHT22;5026;51.494;11.974;2022-12-07T02:47:34;1.40;99.90
9971;DHT22;5026;51.494;11.974;2022-12-07T02:50:03;1.40;99.90
9971;DHT22;5026;51.494;11.974;2022-12-07T02:52:30;1.40;99.90
9971;DHT22;5026;51.494;11.974;2022-12-07T02:54:57;1.40;99.90
9971;DHT22;5026;51.494;11.974;2022-12-07T02:57:40;1.40;99.90
9971;DHT22;5026;51.494;11.974;2022-12-07T03:00:13;1.50;99.90
9971;DHT22;5026;51.494;11.974;2022-12-07T03:02:49;1.60;99.90
9971;DHT22;5026;51.494;11.974;2022-12-07T03:05:45;1.70;99.90
9971;DHT22;5026;51.494;11.974;2022-12-07T03:08:21;1.80;99.90
9971;DHT22;5026;51.494;11.974;2022-12-07T03:10:56;1.80;99.90
9971;DHT22;5026;51.494;11.974;2022-12-07T03:13:26;2.00;99.90
9971;DHT22;5026;51.494;11.974;2022-12-07T03:16:00;2.00;99.90
9971;DHT22;5026;51.494;11.974;2022-12-07T03:18:31;2.00;99.90
9971;DHT22;5026;51.494;11.974;2022-12-07T03:21:02;2.10;99.90
9971;DHT22;5026;51.494;11.974;2022-12-07T03:23:31;2.10;99.90
9971;DHT22;5026;51.494;11.974;2022-12-07T03:26:01;2.20;99.90
9971;DHT22;5026;51.494;11.974;2022-12-07T03:28:32;2.10;99.90
9971;DHT22;5026;51.494;11.974;2022-12-07T03:31:04;3.10;99.90
9971;DHT22;5026;51.494;11.974;2022-12-07T03:33:35;2.20;99.90
9971;DHT22;5026;51.494;11.974;2022-12-07T03:36:06;2.20;99.90
9971;DHT22;5026;51.494;11.974;2022-12-07T03:38:38;2.30;99.90
9971;DHT22;5026;51.494;11.974;2022-12-07T03:41:09;2.90;99.90
9971;DHT22;5026;51.494;11.974;2022-12-07T03:43:39;1.40;99.90
9971;DHT22;5026;51.494;11.974;2022-12-07T03:46:17;2.40;99.90
9971;DHT22;5026;51.494;11.974;2022-12-07T03:48:51;2.20;99.90
9971;DHT22;5026;51.494;11.974;2022-12-07T03:51:22;3.90;99.90
9971;DHT22;5026;51.494;11.974;2022-12-07T03:53:54;3.00;99.90
9971;DHT22;5026;51.494;11.974;2022-12-07T03:56:26;2.50;99.90
9971;DHT22;5026;51.494;11.974;2022-12-07T03:58:54;2.50;99.90
9971;DHT22;5026;51.494;11.974;2022-12-07T04:01:24;3.50;99.90
9971;DHT22;5026;51.494;11.974;2022-12-07T04:03:51;2.70;99.90
9971;DHT22;5026;51.494;11.974;2022-12-07T04:06:19;3.50;99.90
9971;DHT22;5026;51.494;11.974;2022-12-07T04:08:45;3.10;99.90
9971;DHT22;5026;51.494;11.974;2022-12-07T04:11:12;2.50;99.90
9971;DHT22;5026;51.494;11.974;2022-12-07T04:13:39;2.50;99.90
9971;DHT22;5026;51.494;11.974;2022-12-07T04:16:25;2.60;99.90
9971;DHT22;5026;51.494;11.974;2022-12-07T04:18:52;2.70;99.90
9971;DHT22;5026;51.494;11.974;2022-12-07T04:21:19;4.00;99.90
9971;DHT22;5026;51.494;11.974;2022-12-07T04:23:46;2.70;99.90
9971;DHT22;5026;51.494;11.974;2022-12-07T04:26:13;2.70;99.90
9971;DHT22;5026;51.494;11.974;2022-12-07T04:28:40;3.00;99.90
9971;DHT22;5026;51.494;11.974;2022-12-07T04:33:35;2.80;99.90
9971;DHT22;5026;51.494;11.974;2022-12-07T04:36:03;2.90;99.90
9971;DHT22;5026;51.494;11.974;2022-12-07T04:38:30;2.90;99.90
9971;DHT22;5026;51.494;11.974;2022-12-07T04:40:57;2.90;99.90
9971;DHT22;5026;51.494;11.974;2022-12-07T04:45:51;2.90;99.90
9971;DHT22;5026;51.494;11.974;2022-12-07T04:48:18;3.70;99.90
9971;DHT22;5026;51.494;11.974;2022-12-07T04:50:47;3.00;99.90
9971;DHT22;5026;51.494;11.974;2022-12-07T04:55:43;3.00;99.90
9971;DHT22;5026;51.494;11.974;2022-12-07T04:58:10;3.00;99.90
9971;DHT22;5026;51.494;11.974;2022-12-07T05:00:38;4.80;99.90
9971;DHT22;5026;51.494;11.974;2022-12-07T05:03:05;3.00;99.90
9971;DHT22;5026;51.494;11.974;2022-12-07T05:05:31;3.00;99.90
9971;DHT22;5026;51.494;11.974;2022-12-07T05:08:00;3.10;99.90
9971;DHT22;5026;51.494;11.974;2022-12-07T05:10:27;3.30;99.90
9971;DHT22;5026;51.494;11.974;2022-12-07T05:12:54;3.80;99.90
9971;DHT22;5026;51.494;11.974;2022-12-07T05:15:21;4.60;99.90
9971;DHT22;5026;51.494;11.974;2022-12-07T05:17:47;3.10;99.90
9971;DHT22;5026;51.494;11.974;2022-12-07T05:20:14;3.20;99.90
9971;DHT22;5026;51.494;11.974;2022-12-07T05:22:41;3.10;99.90
9971;DHT22;5026;51.494;11.974;2022-12-07T05:25:10;3.10;99.90
9971;DHT22;5026;51.494;11.974;2022-12-07T05:27:37;3.80;99.90
9971;DHT22;5026;51.494;11.974;2022-12-07T05:30:05;3.10;99.90
9971;DHT22;5026;51.494;11.974;2022-12-07T05:32:32;3.10;99.90
9971;DHT22;5026;51.494;11.974;2022-12-07T05:34:59;3.10;99.90
9971;DHT22;5026;51.494;11.974;2022-12-07T05:37:26;3.10;99.90
9971;DHT22;5026;51.494;11.974;2022-12-07T05:39:53;3.30;99.90
9971;DHT22;5026;51.494;11.974;2022-12-07T05:42:21;3.10;99.90
9971;DHT22;5026;51.494;11.974;2022-12-07T05:44:48;3.10;99.90
9971;DHT22;5026;51.494;11.974;2022-12-07T05:47:15;3.00;99.90
9971;DHT22;5026;51.494;11.974;2022-12-07T05:49:42;3.70;99.90
9971;DHT22;5026;51.494;11.974;2022-12-07T05:52:09;2.90;99.90
9971;DHT22;5026;51.494;11.974;2022-12-07T05:57:04;2.80;99.90
9971;DHT22;5026;51.494;11.974;2022-12-07T05:59:32;2.60;99.90
9971;DHT22;5026;51.494;11.974;2022-12-07T06:02:00;2.90;99.90
9971;DHT22;5026;51.494;11.974;2022-12-07T06:04:30;3.90;99.90
9971;DHT22;5026;51.494;11.974;2022-12-07T06:06:58;2.50;99.90
9971;DHT22;5026;51.494;11.974;2022-12-07T06:09:26;2.50;99.90
9971;DHT22;5026;51.494;11.974;2022-12-07T06:11:53;3.10;99.90
9971;DHT22;5026;51.494;11.974;2022-12-07T06:14:39;2.40;99.90
9971;DHT22;5026;51.494;11.974;2022-12-07T06:17:06;2.70;99.90
9971;DHT22;5026;51.494;11.974;2022-12-07T06:19:33;2.50;99.90
9971;DHT22;5026;51.494;11.974;2022-12-07T06:22:01;2.50;99.90
9971;DHT22;5026;51.494;11.974;2022-12-07T06:24:28;2.50;99.90
9971;DHT22;5026;51.494;11.974;2022-12-07T06:26:55;2.70;99.90
9971;DHT22;5026;51.494;11.974;2022-12-07T06:29:22;2.40;99.90
9971;DHT22;5026;51.494;11.974;2022-12-07T06:31:50;2.30;99.90
9971;DHT22;5026;51.494;11.974;2022-12-07T06:34:19;3.00;99.90
9971;DHT22;5026;51.494;11.974;2022-12-07T06:36:48;2.20;99.90
9971;DHT22;5026;51.494;11.974;2022-12-07T06:39:17;2.20;99.90
9971;DHT22;5026;51.494;11.974;2022-12-07T06:41:44;2.20;99.90
9971;DHT22;5026;51.494;11.974;2022-12-07T06:44:11;2.20;99.90
9971;DHT22;5026;51.494;11.974;2022-12-07T06:46:38;3.30;99.90
9971;DHT22;5026;51.494;11.974;2022-12-07T06:49:07;2.40;99.90
9971;DHT22;5026;51.494;11.974;2022-12-07T06:51:34;2.40;99.90
9971;DHT22;5026;51.494;11.974;2022-12-07T06:54:02;2.60;99.90
9971;DHT22;5026;51.494;11.974;2022-12-07T06:56:29;2.60;99.90
9971;DHT22;5026;51.494;11.974;2022-12-07T06:58:56;2.60;99.90
9971;DHT22;5026;51.494;11.974;2022-12-07T07:01:23;2.70;99.90
9971;DHT22;5026;51.494;11.974;2022-12-07T07:03:50;2.60;99.90
9971;DHT22;5026;51.494;11.974;2022-12-07T07:06:19;2.60;99.90
9971;DHT22;5026;51.494;11.974;2022-12-07T07:08:46;2.50;99.90
9971;DHT22;5026;51.494;11.974;2022-12-07T07:11:12;2.40;99.90
9971;DHT22;5026;51.494;11.974;2022-12-07T07:13:39;2.50;99.90
9971;DHT22;5026;51.494;11.974;2022-12-07T07:16:07;2.50;99.90
9971;DHT22;5026;51.494;11.974;2022-12-07T07:18:34;2.50;99.90
9971;DHT22;5026;51.494;11.974;2022-12-07T07:21:01;2.50;99.90
9971;DHT22;5026;51.494;11.974;2022-12-07T07:23:30;2.90;99.90
9971;DHT22;5026;51.494;11.974;2022-12-07T07:25:56;2.60;99.90
9971;DHT22;5026;51.494;11.974;2022-12-07T07:28:23;2.60;99.90
9971;DHT22;5026;51.494;11.974;2022-12-07T07:30:50;2.60;99.90
9971;DHT22;5026;51.494;11.974;2022-12-07T07:33:17;2.60;99.90
9971;DHT22;5026;51.494;11.974;2022-12-07T07:35:44;2.70;99.90
9971;DHT22;5026;51.494;11.974;2022-12-07T07:38:11;2.70;99.90
9971;DHT22;5026;51.494;11.974;2022-12-07T07:40:39;3.20;99.90
9971;DHT22;5026;51.494;11.974;2022-12-07T07:45:33;3.00;99.90
9971;DHT22;5026;51.494;11.974;2022-12-07T07:48:00;3.00;99.90
9971;DHT22;5026;51.494;11.974;2022-12-07T07:50:27;4.10;99.90
9971;DHT22;5026;51.494;11.974;2022-12-07T07:52:54;3.00;99.90
9971;DHT22;5026;51.494;11.974;2022-12-07T07:57:49;3.10;99.90
9971;DHT22;5026;51.494;11.974;2022-12-07T08:00:17;3.10;99.90
9971;DHT22;5026;51.494;11.974;2022-12-07T08:02:44;3.10;99.90
9971;DHT22;5026;51.494;11.974;2022-12-07T08:05:12;3.20;99.90
9971;DHT22;5026;51.494;11.974;2022-12-07T08:07:39;3.10;99.90
9971;DHT22;5026;51.494;11.974;2022-12-07T08:10:08;3.20;99.90
9971;DHT22;5026;51.494;11.974;2022-12-07T08:12:36;3.20;99.90
9971;DHT22;5026;51.494;11.974;2022-12-07T08:15:26;4.00;99.90
9971;DHT22;5026;51.494;11.974;2022-12-07T08:17:54;3.90;99.90
9971;DHT22;5026;51.494;11.974;2022-12-07T08:20:21;3.20;99.90
9971;DHT22;5026;51.494;11.974;2022-12-07T08:22:48;3.40;99.90
9971;DHT22;5026;51.494;11.974;2022-12-07T08:25:15;3.60;99.90
9971;DHT22;5026;51.494;11.974;2022-12-07T08:27:42;3.80;99.90
9971;DHT22;5026;51.494;11.974;2022-12-07T08:30:09;4.20;99.90
9971;DHT22;5026;51.494;11.974;2022-12-07T08:32:38;4.00;99.90
9971;DHT22;5026;51.494;11.974;2022-12-07T08:35:06;4.90;99.90
9971;DHT22;5026;51.494;11.974;2022-12-07T08:37:33;4.00;99.90
9971;DHT22;5026;51.494;11.974;2022-12-07T08:40:00;4.00;99.90
9971;DHT22;5026;51.494;11.974;2022-12-07T08:42:27;4.00;99.90
9971;DHT22;5026;51.494;11.974;2022-12-07T08:44:55;4.20;99.90
9971;DHT22;5026;51.494;11.974;2022-12-07T08:47:24;4.10;99.90
9971;DHT22;5026;51.494;11.974;2022-12-07T08:49:53;4.10;99.90
9971;DHT22;5026;51.494;11.974;2022-12-07T08:52:21;4.20;99.90
9971;DHT22;5026;51.494;11.974;2022-12-07T08:54:49;4.00;99.90
9971;DHT22;5026;51.494;11.974;2022-12-07T08:57:16;4.10;99.90
9971;DHT22;5026;51.494;11.974;2022-12-07T08:59:43;4.10;99.90
9971;DHT22;5026;51.494;11.974;2022-12-07T09:02:10;4.60;99.90
9971;DHT22;5026;51.494;11.974;2022-12-07T09:04:38;4.10;99.90
9971;DHT22;5026;51.494;11.974;2022-12-07T09:07:06;4.10;99.90
9971;DHT22;5026;51.494;11.974;2022-12-07T09:09:33;4.10;99.90
9971;DHT22;5026;51.494;11.974;2022-12-07T09:12:00;4.10;99.90
9971;DHT22;5026;51.494;11.974;2022-12-07T09:14:27;4.80;99.90
9971;DHT22;5026;51.494;11.974;2022-12-07T09:16:54;4.00;99.90
9971;DHT22;5026;51.494;11.974;2022-12-07T09:19:21;4.00;99.90
9971;DHT22;5026;51.494;11.974;2022-12-07T09:21:48;5.50;99.90
9971;DHT22;5026;51.494;11.974;2022-12-07T09:24:17;4.10;99.90
9971;DHT22;5026;51.494;11.974;2022-12-07T09:26:44;4.50;99.90
9971;DHT22;5026;51.494;11.974;2022-12-07T09:29:10;4.20;99.90
9971;DHT22;5026;51.494;11.974;2022-12-07T09:31:37;4.20;99.90
9971;DHT22;5026;51.494;11.974;2022-12-07T09:34:04;4.20;99.90
9971;DHT22;5026;51.494;11.974;2022-12-07T09:36:33;4.80;99.90
9971;DHT22;5026;51.494;11.974;2022-12-07T09:39:00;4.40;99.90
9971;DHT22;5026;51.494;11.974;2022-12-07T09:41:30;4.50;99.90
9971;DHT22;5026;51.494;11.974;2022-12-07T09:44:03;4.50;99.90
9971;DHT22;5026;51.494;11.974;2022-12-07T09:46:35;5.60;99.90
9971;DHT22;5026;51.494;11.974;2022-12-07T09:49:03;4.90;99.90
9971;DHT22;5026;51.494;11.974;2022-12-07T09:51:31;5.20;99.90
9971;DHT22;5026;51.494;11.974;2022-12-07T09:53:59;4.80;99.90
9971;DHT22;5026;51.494;11.974;2022-12-07T09:56:30;4.80;99.90
9971;DHT22;5026;51.494;11.974;2022-12-07T09:58:59;4.80;99.90
9971;DHT22;5026;51.494;11.974;2022-12-07T10:01:29;4.80;99.90
9971;DHT22;5026;51.494;11.974;2022-12-07T10:04:02;4.70;99.90
9971;DHT22;5026;51.494;11.974;2022-12-07T10:06:33;4.10;99.90
9971;DHT22;5026;51.494;11.974;2022-12-07T10:09:00;4.80;99.90
9971;DHT22;5026;51.494;11.974;2022-12-07T10:11:29;5.50;99.90
9971;DHT22;5026;51.494;11.974;2022-12-07T10:14:10;4.90;99.90
9971;DHT22;5026;51.494;11.974;2022-12-07T10:16:39;4.90;99.90
9971;DHT22;5026;51.494;11.974;2022-12-07T10:19:24;4.90;99.90
9971;DHT22;5026;51.494;11.974;2022-12-07T10:22:04;4.90;99.90
9971;DHT22;5026;51.494;11.974;2022-12-07T10:24:31;5.00;99.90
9971;DHT22;5026;51.494;11.974;2022-12-07T10:27:00;5.00;99.90
9971;DHT22;5026;51.494;11.974;2022-12-07T10:29:30;5.10;99.90
9971;DHT22;5026;51.494;11.974;2022-12-07T10:31:59;5.20;99.90
9971;DHT22;5026;51.494;11.974;2022-12-07T10:34:28;5.50;99.90
9971;DHT22;5026;51.494;11.974;2022-12-07T10:37:13;5.20;99.90
9971;DHT22;5026;51.494;11.974;2022-12-07T10:39:42;5.30;99.90
9971;DHT22;5026;51.494;11.974;2022-12-07T10:42:17;5.20;99.90
9971;DHT22;5026;51.494;11.974;2022-12-07T10:44:44;5.10;99.90
9971;DHT22;5026;51.494;11.974;2022-12-07T10:47:29;5.20;99.90
9971;DHT22;5026;51.494;11.974;2022-12-07T10:53:38;5.30;99.90
9971;DHT22;5026;51.494;11.974;2022-12-07T10:59:25;5.20;99.90
9971;DHT22;5026;51.494;11.974;2022-12-07T11:01:59;5.30;99.90
9971;DHT22;5026;51.494;11.974;2022-12-07T11:04:35;5.10;99.90
9971;DHT22;5026;51.494;11.974;2022-12-07T11:07:10;6.30;99.90
9971;DHT22;5026;51.494;11.974;2022-12-07T11:10:01;5.10;99.90
9971;DHT22;5026;51.494;11.974;2022-12-07T11:12:42;5.10;99.90
9971;DHT22;5026;51.494;11.974;2022-12-07T11:15:19;5.20;99.90
9971;DHT22;5026;51.494;11.974;2022-12-07T11:17:53;5.10;99.90
9971;DHT22;5026;51.494;11.974;2022-12-07T11:20:33;5.20;99.90
9971;DHT22;5026;51.494;11.974;2022-12-07T11:23:08;5.30;99.90
9971;DHT22;5026;51.494;11.974;2022-12-07T11:25:43;5.50;99.90
9971;DHT22;5026;51.494;11.974;2022-12-07T11:28:26;6.10;99.90
9971;DHT22;5026;51.494;11.974;2022-12-07T11:31:02;6.00;99.90
9971;DHT22;5026;51.494;11.974;2022-12-07T11:33:38;5.40;99.90
9971;DHT22;5026;51.494;11.974;2022-12-07T11:36:16;5.40;99.90
9971;DHT22;5026;51.494;11.974;2022-12-07T11:38:47;5.70;99.90
9971;DHT22;5026;51.494;11.974;2022-12-07T11:41:18;5.30;99.90
9971;DHT22;5026;51.494;11.974;2022-12-07T11:43:54;5.30;99.90
9971;DHT22;5026;51.494;11.974;2022-12-07T11:46:25;5.30;99.90
9971;DHT22;5026;51.494;11.974;2022-12-07T11:49:01;5.30;99.90
9971;DHT22;5026;51.494;11.974;2022-12-07T11:51:30;5.30;99.90
9971;DHT22;5026;51.494;11.974;2022-12-07T11:54:02;5.40;99.90
9971;DHT22;5026;51.494;11.974;2022-12-07T11:56:30;6.20;99.90
9971;DHT22;5026;51.494;11.974;2022-12-07T11:59:08;5.60;99.90
9971;DHT22;5026;51.494;11.974;2022-12-07T12:01:47;6.00;99.90
9971;DHT22;5026;51.494;11.974;2022-12-07T12:04:26;5.40;99.90
9971;DHT22;5026;51.494;11.974;2022-12-07T12:06:54;5.50;99.90
9971;DHT22;5026;51.494;11.974;2022-12-07T12:09:25;5.60;99.90
9971;DHT22;5026;51.494;11.974;2022-12-07T12:12:07;5.70;99.90
9971;DHT22;5026;51.494;11.974;2022-12-07T12:14:48;6.10;99.90
9971;DHT22;5026;51.494;11.974;2022-12-07T12:17:40;5.80;99.90
9971;DHT22;5026;51.494;11.974;2022-12-07T12:20:19;6.60;99.90
9971;DHT22;5026;51.494;11.974;2022-12-07T12:22:52;6.00;99.90
9971;DHT22;5026;51.494;11.974;2022-12-07T12:25:21;6.00;99.90
9971;DHT22;5026;51.494;11.974;2022-12-07T12:27:51;6.00;99.90
9971;DHT22;5026;51.494;11.974;2022-12-07T12:30:33;6.10;99.90
9971;DHT22;5026;51.494;11.974;2022-12-07T12:33:05;5.90;99.90
9971;DHT22;5026;51.494;11.974;2022-12-07T12:35:34;6.50;99.90
9971;DHT22;5026;51.494;11.974;2022-12-07T12:38:32;6.80;99.90
9971;DHT22;5026;51.494;11.974;2022-12-07T12:41:00;5.90;99.90
9971;DHT22;5026;51.494;11.974;2022-12-07T12:43:41;5.90;99.90
9971;DHT22;5026;51.494;11.974;2022-12-07T12:46:36;5.90;99.90
9971;DHT22;5026;51.494;11.974;2022-12-07T12:55:19;5.60;99.90
9971;DHT22;5026;51.494;11.974;2022-12-07T12:57:53;5.70;99.90
9971;DHT22;5026;51.494;11.974;2022-12-07T13:00:41;5.70;99.90
9971;DHT22;5026;51.494;11.974;2022-12-07T13:03:21;5.70;99.90
9971;DHT22;5026;51.494;11.974;2022-12-07T13:06:30;5.80;99.90
9971;DHT22;5026;51.494;11.974;2022-12-07T13:08:59;5.70;99.90
9971;DHT22;5026;51.494;11.974;2022-12-07T13:11:29;5.70;99.90
9971;DHT22;5026;51.494;11.974;2022-12-07T13:17:10;5.70;99.90
9971;DHT22;5026;51.494;11.974;2022-12-07T13:19:58;5.60;99.90
9971;DHT22;5026;51.494;11.974;2022-12-07T13:22:52;5.60;99.90
9971;DHT22;5026;51.494;11.974;2022-12-07T13:25:35;5.60;99.90
9971;DHT22;5026;51.494;11.974;2022-12-07T13:28:10;5.80;99.90
9971;DHT22;5026;51.494;11.974;2022-12-07T13:30:46;5.70;99.90
9971;DHT22;5026;51.494;11.974;2022-12-07T13:33:15;6.00;99.90
9971;DHT22;5026;51.494;11.974;2022-12-07T13:35:46;6.00;99.90
9971;DHT22;5026;51.494;11.974;2022-12-07T13:38:23;5.60;99.90
9971;DHT22;5026;51.494;11.974;2022-12-07T13:41:12;5.70;99.90
9971;DHT22;5026;51.494;11.974;2022-12-07T13:43:49;5.70;99.90
9971;DHT22;5026;51.494;11.974;2022-12-07T13:46:18;5.60;99.90
9971;DHT22;5026;51.494;11.974;2022-12-07T13:48:48;5.60;99.90
9971;DHT22;5026;51.494;11.974;2022-12-07T13:51:21;6.20;99.90
9971;DHT22;5026;51.494;11.974;2022-12-07T13:53:51;5.50;99.90
9971;DHT22;5026;51.494;11.974;2022-12-07T13:56:21;5.40;99.90
9971;DHT22;5026;51.494;11.974;2022-12-07T14:01:16;5.40;99.90
9971;DHT22;5026;51.494;11.974;2022-12-07T14:03:43;5.40;99.90
9971;DHT22;5026;51.494;11.974;2022-12-07T14:06:19;5.30;99.90
9971;DHT22;5026;51.494;11.974;2022-12-07T14:08:49;5.20;99.90
9971;DHT22;5026;51.494;11.974;2022-12-07T14:11:18;5.60;99.90
9971;DHT22;5026;51.494;11.974;2022-12-07T14:13:55;5.20;99.90
9971;DHT22;5026;51.494;11.974;2022-12-07T14:16:26;5.30;99.90
9971;DHT22;5026;51.494;11.974;2022-12-07T14:18:55;5.10;99.90
9971;DHT22;5026;51.494;11.974;2022-12-07T14:21:24;5.10;99.90
9971;DHT22;5026;51.494;11.974;2022-12-07T14:24:15;6.50;99.90
9971;DHT22;5026;51.494;11.974;2022-12-07T14:26:44;5.50;99.90
9971;DHT22;5026;51.494;11.974;2022-12-07T14:29:29;5.00;99.90
9971;DHT22;5026;51.494;11.974;2022-12-07T14:31:57;4.90;99.90
9971;DHT22;5026;51.494;11.974;2022-12-07T14:34:25;4.90;99.90
9971;DHT22;5026;51.494;11.974;2022-12-07T14:36:52;4.80;99.90
9971;DHT22;5026;51.494;11.974;2022-12-07T14:39:21;5.30;99.90
9971;DHT22;5026;51.494;11.974;2022-12-07T14:44:19;4.80;99.90
9971;DHT22;5026;51.494;11.974;2022-12-07T14:46:47;4.80;99.90
9971;DHT22;5026;51.494;11.974;2022-12-07T14:49:14;4.70;99.90
9971;DHT22;5026;51.494;11.974;2022-12-07T14:51:42;5.00;99.90
9971;DHT22;5026;51.494;11.974;2022-12-07T14:54:14;4.70;99.90
9971;DHT22;5026;51.494;11.974;2022-12-07T14:56:43;4.60;99.90
9971;DHT22;5026;51.494;11.974;2022-12-07T14:59:11;4.50;99.90
9971;DHT22;5026;51.494;11.974;2022-12-07T15:01:38;4.50;99.90
9971;DHT22;5026;51.494;11.974;2022-12-07T15:04:05;6.00;99.90
9971;DHT22;5026;51.494;11.974;2022-12-07T15:06:33;4.40;99.90
9971;DHT22;5026;51.494;11.974;2022-12-07T15:09:00;5.90;99.90
9971;DHT22;5026;51.494;11.974;2022-12-07T15:11:27;4.50;99.90
9971;DHT22;5026;51.494;11.974;2022-12-07T15:13:55;4.50;99.90
9971;DHT22;5026;51.494;11.974;2022-12-07T15:16:35;4.50;99.90
9971;DHT22;5026;51.494;11.974;2022-12-07T15:19:03;4.50;99.90
9971;DHT22;5026;51.494;11.974;2022-12-07T15:21:30;5.30;99.90
9971;DHT22;5026;51.494;11.974;2022-12-07T15:23:57;4.50;99.90
9971;DHT22;5026;51.494;11.974;2022-12-07T15:26:24;4.50;99.90
9971;DHT22;5026;51.494;11.974;2022-12-07T15:28:53;4.60;99.90
9971;DHT22;5026;51.494;11.974;2022-12-07T15:31:21;5.10;99.90
9971;DHT22;5026;51.494;11.974;2022-12-07T15:36:19;4.60;99.90
9971;DHT22;5026;51.494;11.974;2022-12-07T15:38:47;4.50;99.90
9971;DHT22;5026;51.494;11.974;2022-12-07T15:41:14;6.30;99.90
9971;DHT22;5026;51.494;11.974;2022-12-07T15:43:41;4.50;99.90
9971;DHT22;5026;51.494;11.974;2022-12-07T15:46:23;4.30;99.90
9971;DHT22;5026;51.494;11.974;2022-12-07T15:48:55;4.30;99.90
9971;DHT22;5026;51.494;11.974;2022-12-07T15:51:22;4.30;99.90
9971;DHT22;5026;51.494;11.974;2022-12-07T15:53:49;4.20;99.90
9971;DHT22;5026;51.494;11.974;2022-12-07T15:56:16;4.40;99.90
9971;DHT22;5026;51.494;11.974;2022-12-07T15:58:43;4.10;99.90
9971;DHT22;5026;51.494;11.974;2022-12-07T16:01:10;4.00;99.90
9971;DHT22;5026;51.494;11.974;2022-12-07T16:03:39;3.90;99.90
9971;DHT22;5026;51.494;11.974;2022-12-07T16:06:06;3.90;99.90
9971;DHT22;5026;51.494;11.974;2022-12-07T16:08:34;3.80;99.90
9971;DHT22;5026;51.494;11.974;2022-12-07T16:11:05;3.80;99.90
9971;DHT22;5026;51.494;11.974;2022-12-07T16:13:32;3.80;99.90
9971;DHT22;5026;51.494;11.974;2022-12-07T16:16:02;3.80;99.90
9971;DHT22;5026;51.494;11.974;2022-12-07T16:18:29;3.80;99.90
9971;DHT22;5026;51.494;11.974;2022-12-07T16:20:57;3.80;99.90
9971;DHT22;5026;51.494;11.974;2022-12-07T16:23:24;3.80;99.90
9971;DHT22;5026;51.494;11.974;2022-12-07T16:25:51;3.80;99.90
9971;DHT22;5026;51.494;11.974;2022-12-07T16:28:18;3.80;99.90
9971;DHT22;5026;51.494;11.974;2022-12-07T16:30:45;3.80;99.90
9971;DHT22;5026;51.494;11.974;2022-12-07T16:33:12;3.90;99.90
9971;DHT22;5026;51.494;11.974;2022-12-07T16:35:39;4.20;99.90
9971;DHT22;5026;51.494;11.974;2022-12-07T16:38:09;4.90;99.90
9971;DHT22;5026;51.494;11.974;2022-12-07T16:40:36;3.90;99.90
9971;DHT22;5026;51.494;11.974;2022-12-07T16:43:02;4.00;99.90
9971;DHT22;5026;51.494;11.974;2022-12-07T16:45:29;4.00;99.90
9971;DHT22;5026;51.494;11.974;2022-12-07T16:47:56;4.00;99.90
9971;DHT22;5026;51.494;11.974;2022-12-07T16:50:23;4.00;99.90
9971;DHT22;5026;51.494;11.974;2022-12-07T16:52:50;4.00;99.90
9971;DHT22;5026;51.494;11.974;2022-12-07T16:55:18;4.00;99.90
9971;DHT22;5026;51.494;11.974;2022-12-07T16:57:45;4.00;99.90
9971;DHT22;5026;51.494;11.974;2022-12-07T17:00:13;5.80;99.90
9971;DHT22;5026;51.494;11.974;2022-12-07T17:02:40;4.00;99.90
9971;DHT22;5026;51.494;11.974;2022-12-07T17:05:07;5.10;99.90
9971;DHT22;5026;51.494;11.974;2022-12-07T17:07:34;4.00;99.90